Time;durP1;ratioP1;P1;durP2;ratioP2;P2;SDS_P1;SDS_P2;PMS_P1;PMS_P2;Temp;Humidity;BMP_temperature;BMP_pressure;BME280_temperature;BME280_humidity;BME280_pressure;Samples;Min_cycle;Max_cycle;Signal;HPM_P1;HPM_P2
2023/03/11 00:01:41;;;;;;;18.95;7.78;;;1.70;87.80;;;;;;5019727;28;20067;-78
2023/03/11 00:04:07;;;;;;;12.93;6.30;;;1.70;87.40;;;;;;5020271;28;20026;-78
2023/03/11 00:06:36;;;;;;;15.20;5.82;;;1.70;87.40;;;;;;5021726;28;20789;-78
2023/03/11 00:09:03;;;;;;;12.48;3.80;;;1.80;87.50;;;;;;5021859;28;20029;-77
2023/03/11 00:11:29;;;;;;;12.95;4.05;;;1.80;87.80;;;;;;5021772;28;20040;-78
2023/03/11 00:13:55;;;;;;;14.18;3.80;;;1.90;88.00;;;;;;5021072;28;20018;-78
2023/03/11 00:16:20;;;;;;;10.00;3.60;;;1.90;88.20;;;;;;5022966;28;20044;-78
2023/03/11 00:18:49;;;;;;;10.90;3.45;;;2.00;88.30;;;;;;5018770;28;20107;-77
2023/03/11 00:21:17;;;;;;;11.45;3.70;;;2.00;88.30;;;;;;4997430;28;20155;-77
2023/03/11 00:23:43;;;;;;;13.50;3.47;;;2.10;88.40;;;;;;5013133;28;20032;-78
2023/03/11 00:26:09;;;;;;;13.02;4.20;;;2.10;88.50;;;;;;5018440;28;20033;-77
2023/03/11 00:28:35;;;;;;;9.82;3.13;;;2.10;88.60;;;;;;5028903;28;20025;-77
2023/03/11 00:31:01;;;;;;;13.40;5.22;;;2.10;88.70;;;;;;5016540;28;20049;-77
2023/03/11 00:33:27;;;;;;;10.00;3.63;;;2.10;88.80;;;;;;5015626;28;20433;-76
2023/03/11 00:35:52;;;;;;;8.73;3.42;;;2.10;88.90;;;;;;5026142;28;20029;-77
2023/03/11 00:38:19;;;;;;;12.85;4.28;;;2.20;88.90;;;;;;5013826;28;20565;-78
2023/03/11 00:40:46;;;;;;;9.52;3.50;;;2.20;89.00;;;;;;5023974;28;20124;-78
2023/03/11 00:43:12;;;;;;;7.88;3.08;;;2.10;89.10;;;;;;5023403;28;20129;-78
2023/03/11 00:45:38;;;;;;;9.48;3.65;;;2.10;89.20;;;;;;5013401;28;20702;-77
2023/03/11 00:48:05;;;;;;;7.78;3.50;;;2.10;89.10;;;;;;4994365;28;20018;-78
2023/03/11 00:50:32;;;;;;;12.48;3.67;;;2.10;89.30;;;;;;5000300;28;20120;-78
2023/03/11 00:52:58;;;;;;;8.07;3.03;;;2.10;89.30;;;;;;5007948;28;20475;-77
2023/03/11 00:55:27;;;;;;;10.48;3.50;;;2.10;89.40;;;;;;5001736;28;20041;-77
2023/03/11 00:57:55;;;;;;;7.90;3.10;;;2.10;89.40;;;;;;5002312;28;20080;-77
2023/03/11 01:00:23;;;;;;;9.57;3.30;;;2.00;89.50;;;;;;4999893;28;20066;-77
2023/03/11 01:02:49;;;;;;;10.38;3.08;;;2.00;89.70;;;;;;4994795;28;20479;-78
2023/03/11 01:05:18;;;;;;;8.88;3.45;;;1.90;89.70;;;;;;4997016;28;20477;-77
2023/03/11 01:07:44;;;;;;;14.00;3.95;;;1.90;89.70;;;;;;5011051;28;20042;-77
2023/03/11 01:10:10;;;;;;;10.60;4.10;;;1.80;89.60;;;;;;4995139;28;20661;-76
2023/03/11 01:12:36;;;;;;;10.82;3.97;;;1.70;89.70;;;;;;4999049;28;20053;-76
2023/03/11 01:15:02;;;;;;;11.80;3.88;;;1.70;89.70;;;;;;5010664;28;20022;-76
2023/03/11 01:17:28;;;;;;;9.65;3.63;;;1.60;89.70;;;;;;5001156;28;20026;-77
2023/03/11 01:19:54;;;;;;;9.73;3.95;;;1.60;89.80;;;;;;5000762;28;20042;-77
2023/03/11 01:22:19;;;;;;;11.32;4.63;;;1.60;89.90;;;;;;4998627;28;20500;-77
2023/03/11 01:24:45;;;;;;;11.15;4.47;;;1.60;90.00;;;;;;4992614;28;20515;-77
2023/03/11 01:27:11;;;;;;;10.85;4.55;;;1.50;90.10;;;;;;4999826;28;20485;-77
2023/03/11 01:29:36;;;;;;;12.15;3.65;;;1.50;90.20;;;;;;5010533;28;20517;-76
2023/03/11 01:32:02;;;;;;;11.77;4.25;;;1.50;90.20;;;;;;4996630;28;20129;-76
2023/03/11 01:34:28;;;;;;;13.73;5.22;;;1.40;90.20;;;;;;4999511;28;20021;-77
2023/03/11 01:36:53;;;;;;;13.15;4.10;;;1.40;90.10;;;;;;4999088;28;20057;-77
2023/03/11 01:39:19;;;;;;;17.38;5.38;;;1.40;90.10;;;;;;5008021;28;20403;-78
2023/03/11 01:41:44;;;;;;;12.05;5.75;;;1.40;90.10;;;;;;5009149;28;20537;-77
2023/03/11 01:44:11;;;;;;;13.55;5.43;;;1.40;90.10;;;;;;4998245;28;20631;-77
2023/03/11 01:46:52;;;;;;;11.63;5.82;;;1.30;90.10;;;;;;4999319;28;20041;-77
2023/03/11 01:49:20;;;;;;;16.00;6.03;;;1.40;90.00;;;;;;4986429;28;20430;-78
2023/03/11 01:51:50;;;;;;;13.20;7.07;;;1.30;90.00;;;;;;4999198;28;20034;-77
2023/03/11 01:54:32;;;;;;;13.82;5.90;;;1.40;90.00;;;;;;5006360;28;20014;-77
2023/03/11 01:56:59;;;;;;;13.57;6.60;;;1.30;90.10;;;;;;5003568;28;20052;-77
2023/03/11 01:59:32;;;;;;;16.38;6.70;;;1.30;90.10;;;;;;4998630;28;20117;-76
2023/03/11 02:02:24;;;;;;;11.13;5.22;;;1.30;90.10;;;;;;4996127;28;20041;-76
2023/03/11 02:04:50;;;;;;;13.88;6.20;;;1.30;90.10;;;;;;4991894;28;20042;-77
2023/03/11 02:07:17;;;;;;;14.70;5.43;;;1.30;90.10;;;;;;4995679;28;20030;-76
2023/03/11 02:09:43;;;;;;;13.52;5.88;;;1.30;90.20;;;;;;4999510;28;20092;-76
2023/03/11 02:12:12;;;;;;;12.30;5.38;;;1.30;90.10;;;;;;4995885;28;20046;-76
2023/03/11 02:14:42;;;;;;;14.85;6.13;;;1.30;90.20;;;;;;4997919;28;20014;-78
2023/03/11 02:17:08;;;;;;;13.30;5.35;;;1.30;90.20;;;;;;4991602;28;20042;-77
2023/03/11 02:19:40;;;;;;;15.07;6.07;;;1.30;90.20;;;;;;4996392;28;20030;-76
2023/03/11 02:22:07;;;;;;;15.57;7.05;;;1.40;90.10;;;;;;4999154;28;20028;-77
2023/03/11 02:24:45;;;;;;;12.43;7.05;;;1.30;90.00;;;;;;5000161;28;20041;-78
2023/03/11 02:27:15;;;;;;;14.10;6.85;;;1.30;90.00;;;;;;4997292;28;20037;-77
2023/03/11 02:29:42;;;;;;;17.42;6.68;;;1.30;90.00;;;;;;4990753;28;20130;-77
2023/03/11 02:32:09;;;;;;;15.90;7.07;;;1.20;89.90;;;;;;4995106;28;20042;-77
2023/03/11 02:34:37;;;;;;;14.63;6.70;;;1.30;89.90;;;;;;5001550;28;20036;-77
2023/03/11 02:37:08;;;;;;;15.18;6.55;;;1.20;89.90;;;;;;4999665;28;20034;-77
2023/03/11 02:39:40;;;;;;;13.15;6.03;;;1.20;89.90;;;;;;5001635;28;20440;-78
2023/03/11 02:42:22;;;;;;;12.25;5.97;;;1.10;89.90;;;;;;5014701;28;20364;-77
2023/03/11 02:45:07;;;;;;;15.80;6.85;;;1.10;90.10;;;;;;4999228;28;20037;-77
2023/03/11 02:47:34;;;;;;;13.65;6.28;;;1.10;90.10;;;;;;5009403;28;20038;-78
2023/03/11 02:49:59;;;;;;;13.23;5.93;;;1.10;90.20;;;;;;4998293;28;20026;-77
2023/03/11 02:52:27;;;;;;;15.32;6.35;;;1.10;90.20;;;;;;4993086;28;20057;-77
2023/03/11 02:54:53;;;;;;;12.45;5.97;;;1.10;90.20;;;;;;4999284;28;20033;-77
2023/03/11 02:57:19;;;;;;;12.95;6.68;;;1.20;90.20;;;;;;5004475;28;20130;-77
2023/03/11 02:59:44;;;;;;;12.80;6.32;;;1.20;90.20;;;;;;4999137;28;20165;-77
2023/03/11 03:02:10;;;;;;;13.68;6.90;;;1.20;90.10;;;;;;4997710;28;20044;-77
2023/03/11 03:04:36;;;;;;;14.55;6.47;;;1.20;90.10;;;;;;4997223;28;20018;-77
2023/03/11 03:07:01;;;;;;;14.25;5.75;;;1.20;90.00;;;;;;4998869;28;20029;-77
2023/03/11 03:09:27;;;;;;;13.80;6.35;;;1.20;89.80;;;;;;4995194;28;20034;-77
2023/03/11 03:11:53;;;;;;;11.30;6.15;;;1.20;89.80;;;;;;5007410;28;20042;-77
2023/03/11 03:14:18;;;;;;;12.35;6.10;;;1.20;89.70;;;;;;4999459;28;20400;-78
2023/03/11 03:16:44;;;;;;;12.75;5.47;;;1.20;89.70;;;;;;4998435;28;20042;-77
2023/03/11 03:19:10;;;;;;;14.00;6.28;;;1.20;89.70;;;;;;4998683;28;20033;-77
2023/03/11 03:21:35;;;;;;;13.85;5.88;;;1.20;89.70;;;;;;4988537;28;20438;-78
2023/03/11 03:24:02;;;;;;;11.68;6.20;;;1.10;89.60;;;;;;4997949;28;20049;-78
2023/03/11 03:26:27;;;;;;;12.73;6.30;;;1.10;89.70;;;;;;4997264;28;20568;-77
2023/03/11 03:28:53;;;;;;;17.08;6.28;;;1.10;89.70;;;;;;4998696;28;20034;-78
2023/03/11 03:31:19;;;;;;;12.30;5.80;;;1.10;89.70;;;;;;4998181;28;20184;-77
2023/03/11 03:33:44;;;;;;;19.63;5.70;;;1.10;89.80;;;;;;4997504;28;20037;-77
2023/03/11 03:36:12;;;;;;;11.75;6.22;;;1.10;89.70;;;;;;4999348;28;20034;-77
2023/03/11 03:38:38;;;;;;;12.93;6.35;;;1.00;89.70;;;;;;4994406;28;20121;-77
2023/03/11 03:41:04;;;;;;;13.27;5.93;;;1.00;89.60;;;;;;4997001;28;20117;-78
2023/03/11 03:43:30;;;;;;;13.73;5.95;;;0.90;89.50;;;;;;4995773;28;20022;-78
2023/03/11 03:46:01;;;;;;;12.90;5.50;;;0.90;89.50;;;;;;5011320;28;20562;-77
2023/03/11 03:48:28;;;;;;;13.30;6.38;;;0.90;89.60;;;;;;4997259;28;20125;-77
2023/03/11 03:50:54;;;;;;;12.80;5.85;;;0.90;89.60;;;;;;4998395;28;20649;-77
2023/03/11 03:53:20;;;;;;;14.93;6.13;;;0.80;89.70;;;;;;4994265;28;20029;-77
2023/03/11 03:55:46;;;;;;;11.13;6.15;;;0.80;89.70;;;;;;4995637;28;20056;-77
2023/03/11 03:58:11;;;;;;;11.00;5.75;;;0.70;89.70;;;;;;4997894;28;20038;-78
2023/03/11 04:00:38;;;;;;;10.77;5.68;;;0.60;89.70;;;;;;4997584;28;20113;-78
2023/03/11 04:03:04;;;;;;;13.38;6.10;;;0.60;89.80;;;;;;5019415;28;20025;-77
2023/03/11 04:05:30;;;;;;;12.05;5.57;;;0.50;89.70;;;;;;4990487;28;20014;-78
2023/03/11 04:07:56;;;;;;;9.32;5.50;;;0.50;89.80;;;;;;5002179;28;20014;-78
2023/03/11 04:10:22;;;;;;;12.60;5.57;;;0.50;89.90;;;;;;4999351;28;20030;-78
2023/03/11 04:12:47;;;;;;;11.15;5.80;;;0.40;89.90;;;;;;4995386;28;20073;-78
2023/03/11 04:15:13;;;;;;;12.45;5.85;;;0.40;90.00;;;;;;4997279;28;20076;-77
2023/03/11 04:17:39;;;;;;;12.55;6.38;;;0.40;90.10;;;;;;5012370;28;20048;-77
2023/03/11 04:20:11;;;;;;;11.25;6.40;;;0.40;90.00;;;;;;4992065;28;20040;-77
2023/03/11 04:22:37;;;;;;;13.88;5.80;;;0.30;90.10;;;;;;4995666;28;20030;-77
2023/03/11 04:25:03;;;;;;;11.18;6.15;;;0.30;90.10;;;;;;4994889;28;20128;-77
2023/03/11 04:27:29;;;;;;;10.82;5.72;;;0.20;90.20;;;;;;4994109;28;20041;-78
2023/03/11 04:29:54;;;;;;;13.98;6.07;;;0.20;90.20;;;;;;4996137;28;20450;-77
2023/03/11 04:32:21;;;;;;;11.38;6.00;;;0.20;90.30;;;;;;4995534;28;20064;-77
2023/03/11 04:34:47;;;;;;;14.55;6.30;;;0.20;90.30;;;;;;4998797;28;20108;-77
2023/03/11 04:37:13;;;;;;;13.85;6.00;;;0.20;90.30;;;;;;4998670;28;20640;-77
2023/03/11 04:39:39;;;;;;;10.90;5.80;;;0.20;90.30;;;;;;5002055;28;20044;-77
2023/03/11 04:42:04;;;;;;;14.18;6.25;;;0.10;90.40;;;;;;4999287;28;20181;-76
2023/03/11 04:44:30;;;;;;;12.75;6.53;;;0.20;90.40;;;;;;4995421;28;20029;-77
2023/03/11 04:46:56;;;;;;;16.50;7.10;;;0.20;90.50;;;;;;5018642;28;20087;-77
2023/03/11 04:49:21;;;;;;;12.55;6.13;;;0.10;90.50;;;;;;5002585;28;20497;-77
2023/03/11 04:51:47;;;;;;;11.95;6.65;;;0.10;90.50;;;;;;4997327;28;20041;-76
2023/03/11 04:54:13;;;;;;;15.38;7.53;;;0.10;90.60;;;;;;4998481;28;20215;-76
2023/03/11 04:56:39;;;;;;;14.60;7.57;;;0.20;90.60;;;;;;5002598;28;20700;-75
2023/03/11 04:59:04;;;;;;;16.95;6.93;;;0.10;90.60;;;;;;5000364;28;20038;-76
2023/03/11 05:01:30;;;;;;;15.82;7.30;;;0.10;90.50;;;;;;5002075;28;20391;-75
2023/03/11 05:03:56;;;;;;;13.65;6.38;;;0.10;90.60;;;;;;4998630;28;20054;-76
2023/03/11 05:06:21;;;;;;;14.57;6.88;;;0.10;90.60;;;;;;4996662;28;20041;-76
2023/03/11 05:08:47;;;;;;;13.65;6.53;;;0.10;90.60;;;;;;5000035;28;20030;-77
2023/03/11 05:11:13;;;;;;;13.65;6.90;;;0.10;90.60;;;;;;5006873;28;20041;-77
2023/03/11 05:13:38;;;;;;;9.73;6.20;;;0.10;90.70;;;;;;5000878;28;20040;-76
2023/03/11 05:16:04;;;;;;;13.18;6.95;;;0.10;90.60;;;;;;4996789;28;20323;-75
2023/03/11 05:18:31;;;;;;;11.82;6.70;;;0.10;90.60;;;;;;5001024;28;20140;-76
2023/03/11 05:20:57;;;;;;;13.20;7.18;;;0.10;90.60;;;;;;5002373;28;20308;-77
2023/03/11 05:23:22;;;;;;;16.17;7.57;;;0.10;90.60;;;;;;4999197;28;20561;-77
2023/03/11 05:25:48;;;;;;;15.45;7.82;;;0.10;90.60;;;;;;5001262;28;20034;-77
2023/03/11 05:28:14;;;;;;;14.55;7.38;;;0.10;90.70;;;;;;5001220;28;20502;-75
2023/03/11 05:30:40;;;;;;;14.40;7.72;;;0.10;90.60;;;;;;4998723;28;20084;-78
2023/03/11 05:33:05;;;;;;;13.60;7.10;;;0.00;90.60;;;;;;4998658;28;20030;-76
2023/03/11 05:35:31;;;;;;;12.40;7.13;;;0.00;90.60;;;;;;5001062;28;20045;-76
2023/03/11 05:37:57;;;;;;;14.10;7.03;;;0.00;90.60;;;;;;4999060;28;20497;-76
2023/03/11 05:40:22;;;;;;;14.68;7.30;;;0.00;90.70;;;;;;4998773;28;20514;-76
2023/03/11 05:42:48;;;;;;;12.40;7.05;;;0.00;90.70;;;;;;4994660;28;20125;-76
2023/03/11 05:45:14;;;;;;;12.93;6.95;;;0.00;90.70;;;;;;5005650;28;20038;-75
2023/03/11 05:47:41;;;;;;;11.90;7.30;;;0.00;90.70;;;;;;5020418;28;20045;-76
2023/03/11 05:50:07;;;;;;;13.48;7.57;;;-3276.70;90.70;;;;;;5000872;28;20452;-76
2023/03/11 05:52:33;;;;;;;13.13;7.43;;;-3276.70;90.70;;;;;;5015447;28;20037;-76
2023/03/11 05:54:59;;;;;;;14.20;8.60;;;-3276.70;90.70;;;;;;5013194;28;20028;-76
2023/03/11 05:57:25;;;;;;;13.55;8.15;;;-3276.70;90.70;;;;;;5019603;28;20168;-76
2023/03/11 05:59:50;;;;;;;13.60;7.43;;;-3276.60;90.70;;;;;;5019134;28;20033;-77
2023/03/11 06:02:16;;;;;;;11.60;7.50;;;-3276.70;90.80;;;;;;5017411;28;20022;-76
2023/03/11 06:04:42;;;;;;;11.85;6.93;;;-3276.70;90.80;;;;;;5019617;28;20036;-76
2023/03/11 06:07:08;;;;;;;14.68;7.53;;;-3276.70;90.80;;;;;;5018911;28;20033;-75
2023/03/11 06:09:37;;;;;;;12.65;7.20;;;-3276.60;90.80;;;;;;5020213;28;20029;-77
2023/03/11 06:12:04;;;;;;;12.00;7.38;;;-3276.60;90.90;;;;;;5013880;28;20029;-77
2023/03/11 06:14:31;;;;;;;13.05;7.38;;;-3276.70;90.80;;;;;;5014039;28;20526;-76
2023/03/11 06:16:58;;;;;;;10.18;6.80;;;-3276.70;90.80;;;;;;5021400;28;20028;-75
2023/03/11 06:19:24;;;;;;;15.05;8.23;;;-3276.60;90.80;;;;;;5021227;28;20478;-75
2023/03/11 06:21:50;;;;;;;11.10;6.95;;;-3276.60;90.80;;;;;;5017729;28;20038;-77
2023/03/11 06:24:17;;;;;;;14.55;8.00;;;-3276.70;90.90;;;;;;5006565;28;20378;-77
2023/03/11 06:26:42;;;;;;;13.60;7.10;;;-3276.70;90.90;;;;;;5001015;28;20038;-77
2023/03/11 06:29:12;;;;;;;13.00;7.40;;;-3276.60;90.90;;;;;;5022860;28;20468;-78
2023/03/11 06:31:38;;;;;;;15.00;7.82;;;-3276.70;90.90;;;;;;4997504;28;20025;-78
2023/03/11 06:34:05;;;;;;;11.73;7.45;;;-3276.70;90.90;;;;;;5015399;28;20032;-77
2023/03/11 06:36:31;;;;;;;14.85;8.10;;;0.00;91.00;;;;;;5016398;28;20036;-77
2023/03/11 06:38:57;;;;;;;13.68;8.40;;;0.00;91.10;;;;;;5017270;28;20184;-77
2023/03/11 06:41:23;;;;;;;15.43;8.70;;;0.10;91.10;;;;;;5020754;28;20033;-76
2023/03/11 06:43:49;;;;;;;19.83;8.90;;;0.10;91.00;;;;;;5017326;28;20041;-76
2023/03/11 06:46:19;;;;;;;18.50;9.45;;;0.20;91.10;;;;;;5017824;28;20115;-77
2023/03/11 06:48:45;;;;;;;13.40;8.25;;;0.30;90.90;;;;;;5018377;28;20032;-77
2023/03/11 06:51:11;;;;;;;16.98;7.70;;;0.40;90.80;;;;;;5016247;28;20034;-77
2023/03/11 06:53:37;;;;;;;13.75;7.68;;;0.50;90.70;;;;;;5019036;28;20022;-77
2023/03/11 06:56:10;;;;;;;13.63;8.32;;;0.60;90.50;;;;;;5013369;28;20080;-77
2023/03/11 06:58:37;;;;;;;17.35;9.10;;;0.60;90.20;;;;;;5019835;28;20377;-78
2023/03/11 07:01:06;;;;;;;13.27;8.85;;;0.60;90.00;;;;;;5016227;28;20045;-78
2023/03/11 07:03:32;;;;;;;18.25;9.00;;;0.60;89.90;;;;;;5016030;28;20097;-76
2023/03/11 07:05:58;;;;;;;17.95;8.93;;;0.70;89.80;;;;;;5012428;28;20121;-78
2023/03/11 07:08:25;;;;;;;13.80;8.18;;;0.70;89.60;;;;;;5016675;28;20034;-78
2023/03/11 07:11:12;;;;;;;16.90;8.43;;;0.70;89.60;;;;;;5016129;28;20120;-78
2023/03/11 07:13:38;;;;;;;14.23;8.65;;;0.80;89.60;;;;;;5013881;28;20091;-78
2023/03/11 07:16:05;;;;;;;13.88;8.65;;;0.80;89.50;;;;;;4999225;28;20459;-76
2023/03/11 07:18:32;;;;;;;19.38;9.05;;;0.80;89.50;;;;;;4998722;28;20219;-77
2023/03/11 07:20:59;;;;;;;16.52;9.20;;;0.80;89.50;;;;;;5014620;28;20493;-76
2023/03/11 07:23:25;;;;;;;18.13;10.77;;;0.80;89.50;;;;;;5015049;28;20034;-76
2023/03/11 07:25:51;;;;;;;17.08;10.48;;;0.80;89.50;;;;;;5018980;28;20386;-76
2023/03/11 07:28:18;;;;;;;15.73;9.82;;;0.90;89.50;;;;;;5020235;28;20037;-77
2023/03/11 07:30:45;;;;;;;17.80;12.05;;;0.90;89.50;;;;;;5016113;28;20036;-77
2023/03/11 07:33:11;;;;;;;21.40;12.63;;;0.90;89.50;;;;;;5016461;28;20049;-78
2023/03/11 07:35:37;;;;;;;22.50;14.35;;;1.00;89.60;;;;;;5020776;28;20450;-80
2023/03/11 07:38:03;;;;;;;21.42;14.43;;;1.00;89.60;;;;;;5020379;28;20038;-81
2023/03/11 07:40:28;;;;;;;24.15;14.05;;;1.10;89.70;;;;;;5016766;28;20029;-78
2023/03/11 07:42:54;;;;;;;20.92;12.90;;;1.20;89.70;;;;;;5019055;28;20041;-80
2023/03/11 07:45:20;;;;;;;20.38;12.45;;;1.20;89.50;;;;;;5017090;28;20470;-79
2023/03/11 07:47:45;;;;;;;20.67;11.68;;;1.40;89.50;;;;;;5020762;28;20072;-80
2023/03/11 07:50:11;;;;;;;18.88;12.95;;;1.40;89.60;;;;;;5018863;28;20025;-79
2023/03/11 07:52:37;;;;;;;20.83;11.93;;;1.60;89.60;;;;;;4998973;28;20084;-80
2023/03/11 07:55:03;;;;;;;20.35;11.95;;;1.70;89.50;;;;;;5016919;28;20121;-79
2023/03/11 07:57:29;;;;;;;22.05;11.52;;;1.80;89.50;;;;;;5016796;28;20115;-80
2023/03/11 07:59:54;;;;;;;20.38;12.38;;;1.90;89.40;;;;;;5013847;28;20542;-81
2023/03/11 08:02:20;;;;;;;15.77;11.02;;;2.10;89.30;;;;;;5019446;28;20663;-80
2023/03/11 08:04:46;;;;;;;19.77;11.82;;;2.20;89.20;;;;;;5015323;28;20026;-79
2023/03/11 08:07:12;;;;;;;16.08;11.70;;;2.50;89.30;;;;;;5024589;28;20029;-79
2023/03/11 08:09:37;;;;;;;25.02;13.65;;;2.70;88.90;;;;;;5023454;28;20099;-79
2023/03/11 08:12:03;;;;;;;18.73;12.40;;;3.00;88.20;;;;;;5025208;28;20121;-80
2023/03/11 08:14:29;;;;;;;21.08;12.07;;;3.20;87.70;;;;;;5023165;28;20052;-79
2023/03/11 08:16:55;;;;;;;21.63;11.65;;;3.70;87.70;;;;;;5017622;28;20041;-80
2023/03/11 08:19:21;;;;;;;17.60;11.02;;;4.00;86.00;;;;;;5024237;28;20677;-79
2023/03/11 08:21:46;;;;;;;16.92;10.65;;;4.10;84.80;;;;;;5016681;28;20085;-80
2023/03/11 08:24:13;;;;;;;18.00;10.95;;;4.20;84.00;;;;;;5032984;28;20026;-80
2023/03/11 08:26:39;;;;;;;16.25;10.35;;;4.20;82.80;;;;;;5021861;28;20114;-79
2023/03/11 08:29:05;;;;;;;21.27;12.38;;;4.20;82.50;;;;;;5019025;28;20117;-79
2023/03/11 08:31:32;;;;;;;23.48;12.85;;;4.40;84.00;;;;;;5032849;28;20097;-80
2023/03/11 08:34:00;;;;;;;28.00;17.70;;;4.60;82.70;;;;;;5019397;28;20073;-81
2023/03/11 08:36:26;;;;;;;25.45;13.77;;;4.70;82.40;;;;;;5017478;28;20025;-82
2023/03/11 08:38:52;;;;;;;20.90;13.48;;;4.90;81.70;;;;;;5019912;28;20025;-81
2023/03/11 08:41:18;;;;;;;29.30;14.38;;;5.10;80.70;;;;;;5017051;28;20041;-81
2023/03/11 08:43:44;;;;;;;17.05;12.27;;;5.10;79.90;;;;;;5008749;28;20026;-79
2023/03/11 08:46:19;;;;;;;19.38;11.73;;;5.10;80.20;;;;;;5008449;28;20042;-78
2023/03/11 08:48:45;;;;;;;24.40;12.52;;;5.10;79.80;;;;;;5012072;28;20552;-82
2023/03/11 08:51:12;;;;;;;28.20;18.67;;;5.30;80.10;;;;;;5009538;28;20044;-81
2023/03/11 08:53:38;;;;;;;23.00;15.63;;;5.60;79.90;;;;;;5013846;28;20025;-80
2023/03/11 08:56:04;;;;;;;22.77;15.93;;;5.70;79.10;;;;;;5018560;28;20048;-82
2023/03/11 08:58:30;;;;;;;21.85;12.13;;;6.00;79.20;;;;;;5021695;28;20030;-80
2023/03/11 09:00:56;;;;;;;22.55;12.05;;;6.20;78.00;;;;;;5003271;28;20045;-80
2023/03/11 09:03:22;;;;;;;19.13;10.60;;;6.10;76.50;;;;;;5023735;28;20594;-81
2023/03/11 09:05:47;;;;;;;21.45;11.35;;;6.10;76.60;;;;;;5014199;28;20093;-78
2023/03/11 09:08:13;;;;;;;19.55;12.18;;;6.20;76.40;;;;;;5021014;28;20025;-78
2023/03/11 09:10:39;;;;;;;18.90;11.85;;;6.10;76.30;;;;;;5018690;28;20018;-78
2023/03/11 09:13:05;;;;;;;16.17;11.07;;;6.10;76.10;;;;;;5025474;28;20026;-81
2023/03/11 09:15:31;;;;;;;17.95;10.40;;;6.00;75.60;;;;;;5017212;28;20025;-77
2023/03/11 09:17:58;;;;;;;23.10;11.40;;;5.90;75.40;;;;;;5021688;28;20033;-77
2023/03/11 09:20:24;;;;;;;19.35;10.60;;;6.00;76.10;;;;;;5018051;28;20135;-79
2023/03/11 09:22:49;;;;;;;17.52;11.55;;;5.90;76.40;;;;;;5020196;28;20132;-79
2023/03/11 09:25:15;;;;;;;19.35;10.70;;;6.00;76.70;;;;;;5018818;28;20029;-78
2023/03/11 09:27:41;;;;;;;22.83;11.00;;;6.10;76.90;;;;;;5016598;28;20033;-79
2023/03/11 09:30:08;;;;;;;23.00;10.20;;;6.30;76.80;;;;;;5016257;28;20026;-79
2023/03/11 09:32:34;;;;;;;19.00;10.32;;;6.60;76.30;;;;;;5016727;28;20033;-78
2023/03/11 09:35:00;;;;;;;14.48;8.98;;;6.60;75.80;;;;;;5017593;28;20473;-77
2023/03/11 09:37:28;;;;;;;15.93;8.75;;;6.90;75.20;;;;;;5019660;28;20068;-79
2023/03/11 09:39:54;;;;;;;11.80;6.47;;;6.90;74.50;;;;;;5003686;28;20033;-84
2023/03/11 09:42:50;;;;;;;12.48;6.85;;;6.80;73.30;;;;;;5017366;28;20138;-79
2023/03/11 09:45:20;;;;;;;13.02;6.22;;;6.90;73.00;;;;;;5005262;28;20689;-77
2023/03/11 09:48:18;;;;;;;15.50;6.00;;;7.00;72.20;;;;;;5017029;28;20041;-77
2023/03/11 09:50:52;;;;;;;12.75;4.57;;;7.10;70.40;;;;;;5014281;28;20112;-74
2023/03/11 09:53:21;;;;;;;13.68;5.35;;;7.30;70.20;;;;;;4997750;28;20031;-77
2023/03/11 09:55:54;;;;;;;12.35;5.50;;;7.50;68.50;;;;;;5024295;28;20017;-80
2023/03/11 09:58:43;;;;;;;15.60;5.07;;;7.40;68.60;;;;;;5022303;28;20478;-74
2023/03/11 10:01:20;;;;;;;11.57;4.85;;;7.60;69.70;;;;;;5020620;28;20041;-74
2023/03/11 10:03:47;;;;;;;11.05;5.70;;;7.60;67.50;;;;;;5025152;28;20037;-81
2023/03/11 10:06:21;;;;;;;10.48;4.00;;;7.70;68.30;;;;;;5021557;28;20068;-75
2023/03/11 10:09:01;;;;;;;10.77;4.82;;;7.70;66.20;;;;;;5023191;28;20029;-76
2023/03/11 10:11:43;;;;;;;13.30;5.70;;;7.80;66.60;;;;;;5001219;28;20029;-76
2023/03/11 10:14:27;;;;;;;12.68;6.68;;;8.10;66.70;;;;;;5021891;28;20044;-79
2023/03/11 10:17:01;;;;;;;11.43;5.57;;;8.10;66.10;;;;;;5013870;28;20033;-78
2023/03/11 10:19:58;;;;;;;11.88;5.07;;;8.10;66.20;;;;;;5037162;28;20037;-78
2023/03/11 10:22:31;;;;;;;12.05;4.40;;;8.10;64.70;;;;;;5029465;28;20029;-76
2023/03/11 10:25:15;;;;;;;14.10;5.57;;;8.30;61.60;;;;;;5025687;28;20033;-80
2023/03/11 10:27:56;;;;;;;14.50;5.60;;;8.10;62.30;;;;;;5024255;28;20750;-75
2023/03/11 10:30:44;;;;;;;11.32;5.30;;;8.10;63.50;;;;;;5015858;28;20818;-77
2023/03/11 10:33:34;;;;;;;7.72;3.80;;;8.20;63.80;;;;;;5003044;28;20500;-79
2023/03/11 10:36:05;;;;;;;13.05;4.32;;;8.10;63.90;;;;;;5022010;28;20086;-77
2023/03/11 10:38:36;;;;;;;12.40;4.18;;;8.10;63.80;;;;;;5004746;28;20029;-80
2023/03/11 10:41:32;;;;;;;10.05;3.25;;;8.00;62.40;;;;;;5031752;28;20065;-81
2023/03/11 10:44:24;;;;;;;8.27;3.55;;;8.00;62.60;;;;;;5015978;28;20033;-76
2023/03/11 10:46:50;;;;;;;10.55;3.42;;;8.00;61.80;;;;;;5029498;28;20485;-78
2023/03/11 10:49:17;;;;;;;8.32;2.70;;;8.10;62.80;;;;;;5021607;28;20341;-77
2023/03/11 10:51:48;;;;;;;9.63;3.05;;;8.20;60.10;;;;;;5019003;28;20030;-78
2023/03/11 10:54:30;;;;;;;10.73;3.53;;;8.30;59.00;;;;;;5029084;28;20059;-78
2023/03/11 10:57:18;;;;;;;11.23;4.15;;;8.60;60.40;;;;;;5021609;28;20029;-75
2023/03/11 10:59:48;;;;;;;13.70;3.83;;;8.60;61.90;;;;;;5016478;28;20046;-76
2023/03/11 11:02:39;;;;;;;7.65;2.53;;;8.80;60.50;;;;;;4995573;28;20151;-77
2023/03/11 11:05:17;;;;;;;10.60;3.42;;;9.00;59.90;;;;;;5019165;28;20061;-77
2023/03/11 11:07:45;;;;;;;11.68;3.03;;;8.90;58.90;;;;;;5024149;28;20045;-77
2023/03/11 11:10:23;;;;;;;11.38;4.15;;;8.60;60.50;;;;;;5024791;28;20448;-78
2023/03/11 11:12:55;;;;;;;11.35;3.40;;;8.70;61.20;;;;;;5018148;28;20369;-77
2023/03/11 11:15:36;;;;;;;10.70;2.85;;;8.80;57.30;;;;;;5016724;28;20009;-77
2023/03/11 11:18:14;;;;;;;10.68;2.75;;;8.70;58.10;;;;;;5015319;28;20037;-76
2023/03/11 11:20:57;;;;;;;7.63;3.10;;;8.60;56.30;;;;;;5013672;28;20041;-78
2023/03/11 11:23:44;;;;;;;8.95;2.97;;;8.40;56.90;;;;;;5020777;28;20013;-76
2023/03/11 11:26:22;;;;;;;8.18;3.25;;;8.40;58.10;;;;;;4997335;28;20053;-77
2023/03/11 11:29:08;;;;;;;12.18;2.97;;;8.60;58.80;;;;;;5013862;28;20387;-76
2023/03/11 11:31:38;;;;;;;8.65;2.85;;;8.70;59.10;;;;;;5005940;28;20124;-77
2023/03/11 11:34:29;;;;;;;6.18;2.28;;;8.90;58.70;;;;;;4997310;28;20048;-76
2023/03/11 11:37:01;;;;;;;8.30;2.83;;;8.60;59.80;;;;;;5018395;28;20246;-77
2023/03/11 11:39:31;;;;;;;8.32;2.30;;;8.20;61.00;;;;;;5013923;28;20091;-76
2023/03/11 11:42:00;;;;;;;11.30;3.17;;;8.30;59.70;;;;;;5016297;28;20065;-77
2023/03/11 11:44:32;;;;;;;8.40;2.75;;;8.40;59.50;;;;;;5019326;28;20777;-77
2023/03/11 11:47:33;;;;;;;13.13;3.03;;;8.70;58.30;;;;;;5015854;28;20734;-75
2023/03/11 11:50:19;;;;;;;7.43;2.58;;;8.80;57.40;;;;;;5023618;28;20463;-78
2023/03/11 11:52:52;;;;;;;10.98;2.83;;;8.90;56.40;;;;;;5020826;28;20033;-76
2023/03/11 11:55:26;;;;;;;9.13;2.75;;;9.10;56.40;;;;;;5017355;28;20017;-76
2023/03/11 11:57:52;;;;;;;7.10;2.67;;;9.10;55.70;;;;;;5024027;28;20041;-78
2023/03/11 12:00:23;;;;;;;8.15;2.60;;;9.00;57.00;;;;;;5022730;28;20033;-78
2023/03/11 12:03:42;;;;;;;12.43;2.95;;;9.00;56.10;;;;;;5019872;28;20029;-78
2023/03/11 12:06:21;;;;;;;9.52;3.03;;;8.70;58.00;;;;;;5003572;28;20065;-77
2023/03/11 12:08:53;;;;;;;8.30;2.17;;;8.60;58.60;;;;;;5015963;28;20021;-74
2023/03/11 12:11:46;;;;;;;11.90;2.45;;;8.60;56.40;;;;;;5018684;28;20040;-76
2023/03/11 12:14:29;;;;;;;11.30;3.22;;;8.80;56.50;;;;;;5018611;28;20080;-76
2023/03/11 12:17:01;;;;;;;5.72;2.25;;;8.90;56.30;;;;;;4997978;28;20033;-75
2023/03/11 12:19:33;;;;;;;7.75;2.50;;;9.10;55.20;;;;;;5023197;28;20494;-76
2023/03/11 12:22:16;;;;;;;10.63;2.95;;;9.40;55.60;;;;;;5017020;28;20030;-77
2023/03/11 12:25:21;;;;;;;9.45;2.53;;;9.40;52.00;;;;;;5019776;28;20029;-76
2023/03/11 12:27:49;;;;;;;7.60;2.60;;;9.80;52.70;;;;;;5022803;28;20050;-75
2023/03/11 12:30:27;;;;;;;8.40;2.50;;;10.10;49.70;;;;;;5023327;28;20101;-77
2023/03/11 12:33:01;;;;;;;7.07;2.85;;;10.20;51.90;;;;;;5017953;28;20034;-75
2023/03/11 12:35:29;;;;;;;;;;;10.00;49.50;;;;;;5023066;28;20028;-74
2023/03/11 12:38:24;;;;;;;5.50;2.15;;;9.80;50.00;;;;;;5020667;28;19979;-74
2023/03/11 12:40:59;;;;;;;11.25;3.85;;;9.60;50.10;;;;;;5018748;28;20050;-74
2023/03/11 12:43:33;;;;;;;15.40;5.35;;;9.60;52.50;;;;;;4999745;28;20096;-74
2023/03/11 12:46:11;;;;;;;14.60;5.68;;;9.50;53.20;;;;;;5020430;28;20128;-75
2023/03/11 12:48:49;;;;;;;9.82;2.40;;;9.60;52.70;;;;;;5009623;28;20167;-74
2023/03/11 12:51:27;;;;;;;6.22;2.40;;;9.60;51.50;;;;;;5021408;28;20125;-74
2023/03/11 12:53:53;;;;;;;7.85;2.20;;;9.90;49.00;;;;;;5013481;28;20034;-75
2023/03/11 12:56:39;;;;;;;9.02;2.40;;;9.70;51.60;;;;;;5018185;28;20037;-73